createdAt,value
2023-04-18T00:02:20.430Z,7.90
2023-04-18T00:04:49.857Z,7.90
2023-04-18T00:07:19.933Z,7.90
2023-04-18T00:09:46.673Z,7.90
2023-04-18T00:12:13.676Z,7.90
2023-04-18T00:14:41.263Z,7.80
2023-04-18T00:17:09.977Z,7.80
2023-04-18T00:19:37.836Z,7.80
2023-04-18T00:22:10.451Z,7.80
2023-04-18T00:24:37.070Z,7.80
2023-04-18T00:27:03.687Z,7.80
2023-04-18T00:29:31.855Z,7.90
2023-04-18T00:31:58.764Z,7.90
2023-04-18T00:34:25.422Z,7.90
2023-04-18T00:36:52.345Z,7.90
2023-04-18T00:39:19.005Z,7.90
2023-04-18T00:41:45.859Z,7.90
2023-04-18T00:44:12.687Z,7.90
2023-04-18T00:46:39.846Z,7.90
2023-04-18T00:49:06.619Z,7.90
2023-04-18T00:51:35.099Z,7.90
2023-04-18T00:54:03.442Z,7.90
2023-04-18T00:56:32.534Z,7.90
2023-04-18T00:58:59.311Z,7.90
2023-04-18T01:01:26.404Z,7.90
2023-04-18T01:03:53.760Z,7.90
2023-04-18T01:06:20.685Z,7.90
2023-04-18T01:08:47.725Z,7.90
2023-04-18T01:11:16.352Z,7.90
2023-04-18T01:13:43.322Z,7.90
2023-04-18T01:16:10.025Z,7.90
2023-04-18T01:18:38.314Z,7.80
2023-04-18T01:21:08.252Z,7.90
2023-04-18T01:23:35.433Z,7.80
2023-04-18T01:26:05.191Z,7.90
2023-04-18T01:28:36.199Z,7.90
2023-04-18T01:31:06.472Z,7.90
2023-04-18T01:33:33.318Z,7.90
2023-04-18T01:36:00.156Z,7.90
2023-04-18T01:38:33.904Z,7.90
2023-04-18T01:41:01.041Z,7.90
2023-04-18T01:43:27.726Z,8.00
2023-04-18T01:45:56.900Z,7.90
2023-04-18T01:48:23.821Z,8.00
2023-04-18T01:50:51.682Z,7.90
2023-04-18T01:53:19.402Z,8.00
2023-04-18T01:55:47.566Z,8.00
2023-04-18T01:58:15.931Z,8.00
2023-04-18T02:00:43.149Z,8.00
2023-04-18T02:03:09.911Z,8.00
2023-04-18T02:05:40.686Z,8.00
2023-04-18T02:08:09.006Z,7.90
2023-04-18T02:10:35.929Z,7.90
2023-04-18T02:13:02.689Z,7.90
2023-04-18T02:15:30.417Z,7.90
2023-04-18T02:18:00.597Z,7.90
2023-04-18T02:20:31.644Z,7.90
2023-04-18T02:23:03.522Z,7.90
2023-04-18T02:25:30.575Z,7.80
2023-04-18T02:27:57.731Z,7.80
2023-04-18T02:30:27.271Z,7.80
2023-04-18T02:32:59.346Z,7.80
2023-04-18T02:35:27.822Z,7.80
2023-04-18T02:38:02.525Z,7.80
2023-04-18T02:40:30.394Z,7.80
2023-04-18T02:42:58.151Z,7.70
2023-04-18T02:45:26.272Z,7.70
2023-04-18T02:47:55.935Z,7.60
2023-04-18T02:50:23.680Z,7.60
2023-04-18T02:52:50.793Z,7.50
2023-04-18T02:55:17.489Z,7.50
2023-04-18T02:57:44.354Z,7.50
2023-04-18T03:00:19.181Z,7.50
2023-04-18T03:02:46.847Z,7.50
2023-04-18T03:05:13.546Z,7.50
2023-04-18T03:07:40.394Z,7.50
2023-04-18T03:10:07.415Z,7.50
2023-04-18T03:12:43.915Z,7.40
2023-04-18T03:17:46.399Z,7.40
2023-04-18T03:20:16.083Z,7.40
2023-04-18T03:22:42.702Z,7.40
2023-04-18T03:25:09.668Z,7.40
2023-04-18T03:27:39.265Z,7.40
2023-04-18T03:30:06.444Z,7.30
2023-04-18T03:32:38.199Z,7.30
2023-04-18T03:35:05.812Z,7.30
2023-04-18T03:37:32.528Z,7.30
2023-04-18T03:39:59.419Z,7.30
2023-04-18T03:42:26.229Z,7.30
2023-04-18T03:44:52.897Z,7.30
2023-04-18T03:47:19.961Z,7.30
2023-04-18T03:49:47.291Z,7.30
2023-04-18T03:52:14.421Z,7.20
2023-04-18T03:57:23.819Z,7.20
2023-04-18T03:59:54.163Z,7.20
2023-04-18T04:02:21.403Z,7.20
2023-04-18T04:04:49.654Z,7.20
2023-04-18T04:07:16.607Z,7.20
2023-04-18T04:09:43.412Z,7.20
2023-04-18T04:12:11.343Z,7.20
2023-04-18T04:14:38.595Z,7.20
2023-04-18T04:17:05.909Z,7.20
2023-04-18T04:19:32.799Z,7.20
2023-04-18T04:21:59.406Z,7.20
2023-04-18T04:24:26.531Z,7.20
2023-04-18T04:26:53.343Z,7.10
2023-04-18T04:29:21.647Z,7.20
2023-04-18T04:31:49.259Z,7.20
2023-04-18T04:34:16.950Z,7.20
2023-04-18T04:36:44.492Z,7.20
2023-04-18T04:39:11.702Z,7.30
2023-04-18T04:41:41.478Z,7.30
2023-04-18T04:44:09.544Z,7.30
2023-04-18T04:46:41.037Z,7.40
2023-04-18T04:49:08.013Z,7.40
2023-04-18T04:51:40.100Z,7.50
2023-04-18T04:54:06.891Z,7.50
2023-04-18T04:56:33.588Z,7.50
2023-04-18T04:59:01.115Z,7.50
2023-04-18T05:01:27.881Z,7.50
2023-04-18T05:03:54.928Z,7.50
2023-04-18T05:06:23.258Z,7.60
2023-04-18T05:08:58.437Z,7.60
2023-04-18T05:11:25.356Z,7.60
2023-04-18T05:13:55.081Z,7.60
2023-04-18T05:16:22.008Z,7.70
2023-04-18T05:18:49.563Z,7.70
2023-04-18T05:21:16.400Z,7.70
2023-04-18T05:23:43.068Z,7.70
2023-04-18T05:26:10.807Z,7.80
2023-04-18T05:28:38.099Z,7.80
2023-04-18T05:33:40.228Z,7.80
2023-04-18T05:36:07.778Z,7.90
2023-04-18T05:38:35.241Z,7.90
2023-04-18T05:41:02.997Z,8.00
2023-04-18T05:46:09.003Z,8.00
2023-04-18T05:48:47.422Z,8.10
2023-04-18T05:59:21.025Z,8.40
2023-04-18T06:09:47.914Z,8.70
2023-04-18T06:25:38.066Z,9.00
2023-04-18T06:28:05.420Z,9.10
2023-04-18T06:38:32.573Z,9.50
2023-04-18T06:43:36.560Z,9.50
2023-04-18T06:46:05.584Z,9.60
2023-04-18T06:48:33.183Z,9.70
2023-04-18T06:50:59.890Z,9.70
2023-04-18T06:53:26.887Z,9.70
2023-04-18T06:55:53.617Z,9.70
2023-04-18T06:58:21.480Z,9.80
2023-04-18T07:00:55.174Z,9.90
2023-04-18T07:03:22.310Z,10.00
2023-04-18T07:05:50.664Z,10.10
2023-04-18T07:08:17.543Z,10.20
2023-04-18T07:10:46.752Z,10.30
2023-04-18T07:13:15.308Z,10.30
2023-04-18T07:15:43.496Z,10.40
2023-04-18T07:18:16.056Z,10.50
2023-04-18T07:20:45.052Z,10.70
2023-04-18T07:23:13.836Z,10.90
2023-04-18T07:25:41.202Z,11.10
2023-04-18T07:28:07.793Z,11.20
2023-04-18T07:30:36.401Z,11.30
2023-04-18T07:33:03.467Z,11.20
2023-04-18T07:38:13.055Z,11.20
2023-04-18T07:40:39.821Z,11.20
2023-04-18T07:45:48.891Z,11.30
2023-04-18T07:48:15.735Z,11.30
2023-04-18T07:50:43.005Z,11.30
2023-04-18T07:53:09.658Z,11.30
2023-04-18T07:55:37.393Z,11.20
2023-04-18T07:58:04.751Z,11.30
2023-04-18T08:03:17.590Z,11.30
2023-04-18T08:05:46.091Z,11.20
2023-04-18T08:08:13.108Z,11.20
2023-04-18T08:10:45.559Z,11.30
2023-04-18T08:13:16.908Z,11.30
2023-04-18T08:15:43.736Z,11.30
2023-04-18T08:23:37.381Z,11.50
2023-04-18T08:26:05.876Z,11.50
2023-04-18T08:28:33.119Z,11.60
2023-04-18T08:31:00.104Z,11.60
2023-04-18T08:33:27.255Z,11.50
2023-04-18T08:35:55.581Z,11.60
2023-04-18T08:38:24.712Z,11.60
2023-04-18T08:40:51.707Z,11.70
2023-04-18T08:43:19.695Z,11.80
2023-04-18T08:45:46.864Z,11.90
2023-04-18T08:48:15.454Z,12.10
2023-04-18T08:53:27.019Z,12.40
2023-04-18T08:56:00.469Z,12.40
2023-04-18T08:58:27.670Z,12.40
2023-04-18T09:01:02.176Z,12.20
2023-04-18T09:03:43.115Z,12.20
2023-04-18T09:06:17.438Z,12.20
2023-04-18T09:08:59.211Z,12.20
2023-04-18T09:17:02.454Z,12.20
2023-04-18T09:19:34.067Z,12.30
2023-04-18T09:22:04.509Z,12.30
2023-04-18T09:24:32.369Z,12.30
2023-04-18T09:27:01.154Z,12.30
2023-04-18T09:29:50.396Z,12.20
2023-04-18T09:32:27.983Z,12.20
2023-04-18T09:34:58.762Z,12.10
2023-04-18T09:37:28.851Z,12.00
2023-04-18T09:39:56.088Z,11.90
2023-04-18T09:42:23.144Z,11.80
2023-04-18T09:45:08.785Z,11.70
2023-04-18T09:47:41.389Z,11.70
2023-04-18T09:50:11.436Z,11.70
2023-04-18T09:52:40.728Z,11.60
2023-04-18T09:55:13.132Z,11.80
2023-04-18T09:57:46.420Z,11.80
2023-04-18T10:00:22.055Z,11.80
2023-04-18T10:03:05.746Z,11.90
2023-04-18T10:05:35.740Z,12.00
2023-04-18T10:08:03.707Z,12.10
2023-04-18T10:10:30.965Z,12.00
2023-04-18T10:12:59.600Z,12.00
2023-04-18T10:15:34.555Z,12.10
2023-04-18T10:18:05.641Z,12.20
2023-04-18T10:20:33.891Z,12.20
2023-04-18T10:23:20.716Z,12.30
2023-04-18T10:25:50.010Z,12.30
2023-04-18T10:28:18.083Z,12.30
2023-04-18T10:30:45.699Z,12.40
2023-04-18T10:33:31.165Z,12.50
2023-04-18T10:36:27.045Z,12.50
2023-04-18T10:38:54.548Z,12.50
2023-04-18T10:46:51.650Z,12.50
2023-04-18T10:51:59.598Z,12.60
2023-04-18T10:54:30.342Z,12.70
2023-04-18T11:02:35.662Z,12.80
2023-04-18T11:05:26.860Z,12.80
2023-04-18T11:07:54.025Z,12.80
2023-04-18T11:13:06.913Z,12.80
2023-04-18T11:21:12.418Z,13.10
2023-04-18T11:23:48.419Z,13.10
2023-04-18T11:26:17.757Z,13.10
2023-04-18T11:28:46.526Z,13.00
2023-04-18T11:31:16.282Z,12.90
2023-04-18T11:33:47.728Z,12.90
2023-04-18T11:44:26.809Z,12.50
2023-04-18T11:46:55.170Z,12.50
2023-04-18T11:49:32.065Z,12.40
2023-04-18T11:52:04.419Z,12.40
2023-04-18T11:54:38.981Z,12.30
2023-04-18T11:57:10.770Z,12.30
2023-04-18T11:59:43.074Z,12.30
2023-04-18T12:02:16.738Z,12.20
2023-04-18T12:04:54.026Z,12.20
2023-04-18T12:07:38.404Z,12.20
2023-04-18T12:10:06.461Z,12.20
2023-04-18T12:12:36.389Z,12.30
2023-04-18T12:15:06.673Z,12.30
2023-04-18T12:17:35.035Z,12.30
2023-04-18T12:20:03.653Z,12.40
2023-04-18T12:22:42.402Z,12.30
2023-04-18T12:25:10.179Z,12.40
2023-04-18T12:27:53.369Z,12.40
2023-04-18T12:30:23.084Z,12.30
2023-04-18T12:35:27.148Z,12.20
2023-04-18T12:37:55.687Z,12.20
2023-04-18T12:40:24.188Z,12.20
2023-04-18T12:42:51.441Z,12.20
2023-04-18T12:45:21.105Z,12.20
2023-04-18T12:47:49.309Z,12.10
2023-04-18T12:50:18.816Z,12.10
2023-04-18T12:52:48.261Z,12.20
2023-04-18T12:55:24.489Z,12.10
2023-04-18T12:57:56.089Z,12.10
2023-04-18T13:00:26.261Z,12.10
2023-04-18T13:02:57.216Z,12.20
2023-04-18T13:05:25.412Z,12.20
2023-04-18T13:07:58.732Z,12.20
2023-04-18T13:10:35.083Z,12.30
2023-04-18T13:13:04.368Z,12.30
2023-04-18T13:15:32.946Z,12.30
2023-04-18T13:18:05.084Z,12.30
2023-04-18T13:20:37.227Z,12.30
2023-04-18T13:23:05.186Z,12.30
2023-04-18T13:25:39.871Z,12.30
2023-04-18T13:28:07.580Z,12.40
2023-04-18T13:33:25.422Z,12.40
2023-04-18T13:35:52.335Z,12.50
2023-04-18T13:38:19.164Z,12.40
2023-04-18T13:40:47.367Z,12.40
2023-04-18T13:43:15.832Z,12.50
2023-04-18T13:51:16.702Z,12.40
2023-04-18T13:53:43.530Z,12.50
2023-04-18T13:56:10.426Z,12.50
2023-04-18T13:58:38.227Z,12.50
2023-04-18T14:01:06.971Z,12.40
2023-04-18T14:03:41.274Z,12.40
2023-04-18T14:06:13.473Z,12.30
2023-04-18T14:08:43.163Z,12.30
2023-04-18T14:11:10.399Z,12.30
2023-04-18T14:13:37.512Z,12.30
2023-04-18T14:16:04.679Z,12.30
2023-04-18T14:18:31.576Z,12.40
2023-04-18T14:20:58.589Z,12.40
2023-04-18T14:23:25.969Z,12.50
2023-04-18T14:25:53.952Z,12.50
2023-04-18T14:28:26.446Z,12.50
2023-04-18T14:31:02.759Z,12.60
2023-04-18T14:33:30.092Z,12.70
2023-04-18T14:35:59.286Z,12.80
2023-04-18T14:38:29.112Z,12.80
2023-04-18T14:40:57.255Z,12.90
2023-04-18T14:43:24.557Z,12.90
2023-04-18T14:45:55.484Z,12.90
2023-04-18T14:48:28.360Z,12.80
2023-04-18T14:51:00.867Z,12.80
2023-04-18T14:53:28.256Z,12.80
2023-04-18T14:55:56.472Z,12.80
2023-04-18T14:58:23.249Z,12.80
2023-04-18T15:00:53.886Z,12.80
2023-04-18T15:03:21.206Z,12.80
2023-04-18T15:05:53.195Z,12.80
2023-04-18T15:08:21.654Z,12.80
2023-04-18T15:10:48.991Z,12.80
2023-04-18T15:13:23.441Z,12.80
2023-04-18T15:15:54.398Z,12.70
2023-04-18T15:18:21.827Z,12.70
2023-04-18T15:20:52.889Z,12.70
2023-04-18T15:23:20.016Z,12.70
2023-04-18T15:25:49.371Z,12.60
2023-04-18T15:28:18.716Z,12.60
2023-04-18T15:30:46.199Z,12.60
2023-04-18T15:33:20.803Z,12.60
2023-04-18T15:35:48.770Z,12.50
2023-04-18T15:38:18.167Z,12.50
2023-04-18T15:40:45.514Z,12.50
2023-04-18T15:43:13.733Z,12.50
2023-04-18T15:45:41.623Z,12.50
2023-04-18T15:48:10.263Z,12.50
2023-04-18T15:50:37.599Z,12.50
2023-04-18T15:53:04.895Z,12.50
2023-04-18T15:55:32.602Z,12.50
2023-04-18T15:57:59.508Z,12.50
2023-04-18T16:00:26.406Z,12.40
2023-04-18T16:02:53.530Z,12.40
2023-04-18T16:05:22.096Z,12.40
2023-04-18T16:07:50.444Z,12.30
2023-04-18T16:10:17.117Z,12.30
2023-04-18T16:12:44.177Z,12.30
2023-04-18T16:15:12.525Z,12.30
2023-04-18T16:17:39.339Z,12.30
2023-04-18T16:20:15.636Z,12.30
2023-04-18T16:22:42.570Z,12.20
2023-04-18T16:25:09.361Z,12.10
2023-04-18T16:27:37.072Z,12.10
2023-04-18T16:30:05.366Z,12.00
2023-04-18T16:32:35.304Z,11.90
2023-04-18T16:35:02.123Z,11.80
2023-04-18T16:37:28.989Z,11.70
2023-04-18T16:39:58.462Z,11.60
2023-04-18T16:42:25.440Z,11.60
2023-04-18T16:44:53.803Z,11.50
2023-04-18T16:47:23.808Z,11.50
2023-04-18T16:49:51.401Z,11.50
2023-04-18T16:52:18.665Z,11.40
2023-04-18T16:54:46.784Z,11.50
2023-04-18T16:57:14.075Z,11.50
2023-04-18T16:59:42.349Z,11.40
2023-04-18T17:02:09.227Z,11.40
2023-04-18T17:04:37.450Z,11.50
2023-04-18T17:07:04.115Z,11.50
2023-04-18T17:09:31.567Z,11.50
2023-04-18T17:12:04.733Z,11.50
2023-04-18T17:14:34.487Z,11.50
2023-04-18T17:17:01.192Z,11.50
2023-04-18T17:19:28.259Z,11.50
2023-04-18T17:21:55.020Z,11.50
2023-04-18T17:24:22.852Z,11.40
2023-04-18T17:26:52.641Z,11.40
2023-04-18T17:29:20.362Z,11.40
2023-04-18T17:31:48.719Z,11.30
2023-04-18T17:34:15.766Z,11.30
2023-04-18T17:36:42.988Z,11.20
2023-04-18T17:39:09.840Z,11.20
2023-04-18T17:41:41.543Z,11.10
2023-04-18T17:44:10.588Z,11.10
2023-04-18T17:46:37.489Z,11.10
2023-04-18T17:49:04.941Z,11.10
2023-04-18T17:51:31.884Z,11.00
2023-04-18T17:54:01.817Z,11.00
2023-04-18T17:56:31.436Z,11.00
2023-04-18T17:58:58.280Z,10.90
2023-04-18T18:01:28.164Z,10.90
2023-04-18T18:03:55.694Z,10.80
2023-04-18T18:06:22.677Z,10.80
2023-04-18T18:08:50.359Z,10.70
2023-04-18T18:11:17.278Z,10.70
2023-04-18T18:13:46.286Z,10.70
2023-04-18T18:16:13.541Z,10.70
2023-04-18T18:18:40.847Z,10.60
2023-04-18T18:21:09.054Z,10.60
2023-04-18T18:23:36.912Z,10.60
2023-04-18T18:26:06.542Z,10.60
2023-04-18T18:28:42.593Z,10.60
2023-04-18T18:31:10.552Z,10.60
2023-04-18T18:33:37.347Z,10.50
2023-04-18T18:36:07.199Z,10.50
2023-04-18T18:38:33.955Z,10.50
2023-04-18T18:41:03.793Z,10.40
2023-04-18T18:43:32.152Z,10.40
2023-04-18T18:46:02.817Z,10.40
